sensor_id;sensor_type;location;lat;lon;timestamp;P1;durP1;ratioP1;P2;durP2;ratioP2
69188;SDS011;56302;52.322;5.926;2022-11-20T00:00:54;15.98;;;7.10;;
69188;SDS011;56302;52.322;5.926;2022-11-20T00:03:20;14.57;;;7.47;;
69188;SDS011;56302;52.322;5.926;2022-11-20T00:05:46;13.93;;;6.50;;
69188;SDS011;56302;52.322;5.926;2022-11-20T00:08:11;14.40;;;7.43;;
69188;SDS011;56302;52.322;5.926;2022-11-20T00:10:37;14.18;;;6.60;;
69188;SDS011;56302;52.322;5.926;2022-11-20T00:13:04;13.57;;;6.63;;
69188;SDS011;56302;52.322;5.926;2022-11-20T00:15:30;18.48;;;7.65;;
69188;SDS011;56302;52.322;5.926;2022-11-20T00:17:56;16.23;;;7.53;;
69188;SDS011;56302;52.322;5.926;2022-11-20T00:20:21;16.00;;;7.37;;
69188;SDS011;56302;52.322;5.926;2022-11-20T00:22:47;15.27;;;6.88;;
69188;SDS011;56302;52.322;5.926;2022-11-20T00:25:14;15.90;;;6.75;;
69188;SDS011;56302;52.322;5.926;2022-11-20T00:27:39;16.03;;;6.73;;
69188;SDS011;56302;52.322;5.926;2022-11-20T00:30:05;13.85;;;7.45;;
69188;SDS011;56302;52.322;5.926;2022-11-20T00:32:32;14.77;;;6.53;;
69188;SDS011;56302;52.322;5.926;2022-11-20T00:34:57;13.98;;;6.93;;
69188;SDS011;56302;52.322;5.926;2022-11-20T00:37:23;16.70;;;6.73;;
69188;SDS011;56302;52.322;5.926;2022-11-20T00:39:48;19.00;;;7.67;;
69188;SDS011;56302;52.322;5.926;2022-11-20T00:42:14;15.43;;;6.70;;
69188;SDS011;56302;52.322;5.926;2022-11-20T00:44:39;21.70;;;9.37;;
69188;SDS011;56302;52.322;5.926;2022-11-20T00:47:05;14.90;;;7.00;;
69188;SDS011;56302;52.322;5.926;2022-11-20T00:49:30;15.45;;;6.82;;
69188;SDS011;56302;52.322;5.926;2022-11-20T00:51:56;15.45;;;7.18;;
69188;SDS011;56302;52.322;5.926;2022-11-20T00:54:21;14.97;;;6.70;;
69188;SDS011;56302;52.322;5.926;2022-11-20T00:56:47;14.27;;;6.60;;
69188;SDS011;56302;52.322;5.926;2022-11-20T00:59:12;12.70;;;6.30;;
69188;SDS011;56302;52.322;5.926;2022-11-20T01:01:38;14.70;;;7.03;;
69188;SDS011;56302;52.322;5.926;2022-11-20T01:04:03;15.40;;;6.83;;
69188;SDS011;56302;52.322;5.926;2022-11-20T01:06:30;14.48;;;6.63;;
69188;SDS011;56302;52.322;5.926;2022-11-20T01:08:59;14.98;;;6.25;;
69188;SDS011;56302;52.322;5.926;2022-11-20T01:11:31;15.02;;;6.32;;
69188;SDS011;56302;52.322;5.926;2022-11-20T01:13:59;13.50;;;6.43;;
69188;SDS011;56302;52.322;5.926;2022-11-20T01:16:27;12.48;;;6.55;;
69188;SDS011;56302;52.322;5.926;2022-11-20T01:18:56;12.20;;;5.93;;
69188;SDS011;56302;52.322;5.926;2022-11-20T01:21:23;13.20;;;5.78;;
69188;SDS011;56302;52.322;5.926;2022-11-20T01:23:53;12.68;;;6.40;;
69188;SDS011;56302;52.322;5.926;2022-11-20T01:26:21;11.40;;;5.13;;
69188;SDS011;56302;52.322;5.926;2022-11-20T01:28:48;12.30;;;6.38;;
69188;SDS011;56302;52.322;5.926;2022-11-20T01:33:40;13.87;;;6.00;;
69188;SDS011;56302;52.322;5.926;2022-11-20T01:36:07;12.00;;;6.07;;
69188;SDS011;56302;52.322;5.926;2022-11-20T01:38:34;12.52;;;5.93;;
69188;SDS011;56302;52.322;5.926;2022-11-20T01:41:00;11.97;;;6.07;;
69188;SDS011;56302;52.322;5.926;2022-11-20T01:43:26;11.52;;;5.88;;
69188;SDS011;56302;52.322;5.926;2022-11-20T01:46:02;11.32;;;5.93;;
69188;SDS011;56302;52.322;5.926;2022-11-20T01:48:32;11.73;;;5.75;;
69188;SDS011;56302;52.322;5.926;2022-11-20T01:51:26;13.48;;;6.03;;
69188;SDS011;56302;52.322;5.926;2022-11-20T01:54:00;11.50;;;5.95;;
69188;SDS011;56302;52.322;5.926;2022-11-20T01:56:31;13.38;;;6.50;;
69188;SDS011;56302;52.322;5.926;2022-11-20T01:59:01;12.73;;;5.83;;
69188;SDS011;56302;52.322;5.926;2022-11-20T02:01:28;14.05;;;6.18;;
69188;SDS011;56302;52.322;5.926;2022-11-20T02:03:55;13.30;;;5.95;;
69188;SDS011;56302;52.322;5.926;2022-11-20T02:06:23;12.10;;;5.95;;
69188;SDS011;56302;52.322;5.926;2022-11-20T02:08:57;14.05;;;6.38;;
69188;SDS011;56302;52.322;5.926;2022-11-20T02:11:23;16.00;;;5.97;;
69188;SDS011;56302;52.322;5.926;2022-11-20T02:13:48;13.70;;;5.77;;
69188;SDS011;56302;52.322;5.926;2022-11-20T02:16:20;13.15;;;5.97;;
69188;SDS011;56302;52.322;5.926;2022-11-20T02:18:51;14.25;;;6.25;;
69188;SDS011;56302;52.322;5.926;2022-11-20T02:21:38;15.30;;;6.28;;
69188;SDS011;56302;52.322;5.926;2022-11-20T02:24:14;12.18;;;5.82;;
69188;SDS011;56302;52.322;5.926;2022-11-20T02:26:42;13.07;;;5.90;;
69188;SDS011;56302;52.322;5.926;2022-11-20T02:29:15;13.23;;;6.22;;
69188;SDS011;56302;52.322;5.926;2022-11-20T02:31:44;13.27;;;6.07;;
69188;SDS011;56302;52.322;5.926;2022-11-20T02:34:10;12.40;;;5.45;;
69188;SDS011;56302;52.322;5.926;2022-11-20T02:36:35;13.47;;;5.63;;
69188;SDS011;56302;52.322;5.926;2022-11-20T02:39:03;12.07;;;4.90;;
69188;SDS011;56302;52.322;5.926;2022-11-20T02:41:33;14.67;;;7.07;;
69188;SDS011;56302;52.322;5.926;2022-11-20T02:44:00;13.70;;;5.85;;
69188;SDS011;56302;52.322;5.926;2022-11-20T02:46:26;12.40;;;5.85;;
69188;SDS011;56302;52.322;5.926;2022-11-20T02:48:51;13.83;;;5.77;;
69188;SDS011;56302;52.322;5.926;2022-11-20T02:51:17;11.30;;;5.68;;
69188;SDS011;56302;52.322;5.926;2022-11-20T02:53:42;12.63;;;5.47;;
69188;SDS011;56302;52.322;5.926;2022-11-20T02:56:08;11.47;;;4.93;;
69188;SDS011;56302;52.322;5.926;2022-11-20T02:58:33;12.82;;;5.38;;
69188;SDS011;56302;52.322;5.926;2022-11-20T03:00:59;13.57;;;6.05;;
69188;SDS011;56302;52.322;5.926;2022-11-20T03:03:24;12.27;;;5.80;;
69188;SDS011;56302;52.322;5.926;2022-11-20T03:05:50;11.07;;;5.33;;
69188;SDS011;56302;52.322;5.926;2022-11-20T03:08:15;12.85;;;5.53;;
69188;SDS011;56302;52.322;5.926;2022-11-20T03:10:41;14.60;;;6.00;;
69188;SDS011;56302;52.322;5.926;2022-11-20T03:13:06;12.07;;;6.00;;
69188;SDS011;56302;52.322;5.926;2022-11-20T03:15:32;12.87;;;5.87;;
69188;SDS011;56302;52.322;5.926;2022-11-20T03:17:57;11.85;;;5.30;;
69188;SDS011;56302;52.322;5.926;2022-11-20T03:20:23;11.67;;;5.10;;
69188;SDS011;56302;52.322;5.926;2022-11-20T03:22:49;13.10;;;5.97;;
69188;SDS011;56302;52.322;5.926;2022-11-20T03:25:14;12.27;;;5.80;;
69188;SDS011;56302;52.322;5.926;2022-11-20T03:27:40;13.20;;;5.97;;
69188;SDS011;56302;52.322;5.926;2022-11-20T03:30:05;9.73;;;4.80;;
69188;SDS011;56302;52.322;5.926;2022-11-20T03:32:31;13.23;;;5.95;;
69188;SDS011;56302;52.322;5.926;2022-11-20T03:34:57;13.52;;;6.10;;
69188;SDS011;56302;52.322;5.926;2022-11-20T03:37:22;12.30;;;5.47;;
69188;SDS011;56302;52.322;5.926;2022-11-20T03:39:48;13.53;;;5.80;;
69188;SDS011;56302;52.322;5.926;2022-11-20T03:42:13;13.37;;;6.23;;
69188;SDS011;56302;52.322;5.926;2022-11-20T03:44:57;14.95;;;5.60;;
69188;SDS011;56302;52.322;5.926;2022-11-20T03:47:23;10.37;;;5.03;;
69188;SDS011;56302;52.322;5.926;2022-11-20T03:49:48;13.43;;;5.60;;
69188;SDS011;56302;52.322;5.926;2022-11-20T03:52:14;13.00;;;6.03;;
69188;SDS011;56302;52.322;5.926;2022-11-20T03:54:39;12.67;;;5.53;;
69188;SDS011;56302;52.322;5.926;2022-11-20T03:57:05;11.67;;;5.87;;
69188;SDS011;56302;52.322;5.926;2022-11-20T03:59:30;14.82;;;6.30;;
69188;SDS011;56302;52.322;5.926;2022-11-20T04:01:56;14.13;;;5.63;;
69188;SDS011;56302;52.322;5.926;2022-11-20T04:04:21;12.60;;;5.87;;
69188;SDS011;56302;52.322;5.926;2022-11-20T04:06:47;11.90;;;5.80;;
69188;SDS011;56302;52.322;5.926;2022-11-20T04:09:12;11.35;;;5.25;;
69188;SDS011;56302;52.322;5.926;2022-11-20T04:11:39;10.00;;;5.27;;
69188;SDS011;56302;52.322;5.926;2022-11-20T04:14:06;11.40;;;5.38;;
69188;SDS011;56302;52.322;5.926;2022-11-20T04:16:37;13.73;;;5.70;;
69188;SDS011;56302;52.322;5.926;2022-11-20T04:19:04;10.70;;;5.43;;
69188;SDS011;56302;52.322;5.926;2022-11-20T04:21:35;13.27;;;5.63;;
69188;SDS011;56302;52.322;5.926;2022-11-20T04:24:01;12.87;;;4.87;;
69188;SDS011;56302;52.322;5.926;2022-11-20T04:26:27;10.95;;;5.30;;
69188;SDS011;56302;52.322;5.926;2022-11-20T04:28:54;12.03;;;5.50;;
69188;SDS011;56302;52.322;5.926;2022-11-20T04:31:24;12.75;;;6.10;;
69188;SDS011;56302;52.322;5.926;2022-11-20T04:33:51;12.15;;;5.57;;
69188;SDS011;56302;52.322;5.926;2022-11-20T04:36:21;13.07;;;5.57;;
69188;SDS011;56302;52.322;5.926;2022-11-20T04:38:51;11.65;;;4.93;;
69188;SDS011;56302;52.322;5.926;2022-11-20T04:41:19;12.23;;;5.43;;
69188;SDS011;56302;52.322;5.926;2022-11-20T04:43:46;13.45;;;5.88;;
69188;SDS011;56302;52.322;5.926;2022-11-20T04:46:16;11.67;;;5.30;;
69188;SDS011;56302;52.322;5.926;2022-11-20T04:48:42;14.45;;;6.03;;
69188;SDS011;56302;52.322;5.926;2022-11-20T04:51:08;10.38;;;4.95;;
69188;SDS011;56302;52.322;5.926;2022-11-20T04:53:33;12.93;;;5.53;;
69188;SDS011;56302;52.322;5.926;2022-11-20T04:56:03;13.47;;;6.00;;
69188;SDS011;56302;52.322;5.926;2022-11-20T04:58:30;12.80;;;5.57;;
69188;SDS011;56302;52.322;5.926;2022-11-20T05:01:03;16.40;;;5.82;;
69188;SDS011;56302;52.322;5.926;2022-11-20T05:03:34;11.77;;;5.72;;
69188;SDS011;56302;52.322;5.926;2022-11-20T05:06:00;12.87;;;5.47;;
69188;SDS011;56302;52.322;5.926;2022-11-20T05:08:26;13.27;;;6.15;;
69188;SDS011;56302;52.322;5.926;2022-11-20T05:10:52;10.43;;;5.17;;
69188;SDS011;56302;52.322;5.926;2022-11-20T05:13:17;11.97;;;5.13;;
69188;SDS011;56302;52.322;5.926;2022-11-20T05:15:43;10.38;;;4.85;;
69188;SDS011;56302;52.322;5.926;2022-11-20T05:18:08;12.27;;;5.37;;
69188;SDS011;56302;52.322;5.926;2022-11-20T05:20:34;13.17;;;5.57;;
69188;SDS011;56302;52.322;5.926;2022-11-20T05:23:01;15.57;;;5.65;;
69188;SDS011;56302;52.322;5.926;2022-11-20T05:25:26;9.63;;;4.88;;
69188;SDS011;56302;52.322;5.926;2022-11-20T05:27:52;13.33;;;5.60;;
69188;SDS011;56302;52.322;5.926;2022-11-20T05:30:18;13.27;;;5.57;;
69188;SDS011;56302;52.322;5.926;2022-11-20T05:32:43;11.07;;;5.33;;
69188;SDS011;56302;52.322;5.926;2022-11-20T05:35:09;13.07;;;6.00;;
69188;SDS011;56302;52.322;5.926;2022-11-20T05:37:35;10.93;;;5.00;;
69188;SDS011;56302;52.322;5.926;2022-11-20T05:40:00;11.23;;;5.77;;
69188;SDS011;56302;52.322;5.926;2022-11-20T05:42:26;11.80;;;6.07;;
69188;SDS011;56302;52.322;5.926;2022-11-20T05:44:58;11.98;;;5.47;;
69188;SDS011;56302;52.322;5.926;2022-11-20T05:47:24;13.07;;;5.28;;
69188;SDS011;56302;52.322;5.926;2022-11-20T05:49:51;13.80;;;5.35;;
69188;SDS011;56302;52.322;5.926;2022-11-20T05:52:16;12.10;;;5.20;;
69188;SDS011;56302;52.322;5.926;2022-11-20T05:54:42;10.27;;;5.20;;
69188;SDS011;56302;52.322;5.926;2022-11-20T05:57:07;13.02;;;5.85;;
69188;SDS011;56302;52.322;5.926;2022-11-20T05:59:33;13.13;;;5.93;;
69188;SDS011;56302;52.322;5.926;2022-11-20T06:01:58;11.97;;;5.53;;
69188;SDS011;56302;52.322;5.926;2022-11-20T06:04:24;13.43;;;6.03;;
69188;SDS011;56302;52.322;5.926;2022-11-20T06:06:49;17.47;;;5.80;;
69188;SDS011;56302;52.322;5.926;2022-11-20T06:09:15;12.33;;;5.73;;
69188;SDS011;56302;52.322;5.926;2022-11-20T06:11:40;12.27;;;5.70;;
69188;SDS011;56302;52.322;5.926;2022-11-20T06:14:06;11.38;;;5.40;;
69188;SDS011;56302;52.322;5.926;2022-11-20T06:16:31;12.10;;;5.57;;
69188;SDS011;56302;52.322;5.926;2022-11-20T06:18:57;11.57;;;5.13;;
69188;SDS011;56302;52.322;5.926;2022-11-20T06:21:22;15.80;;;6.28;;
69188;SDS011;56302;52.322;5.926;2022-11-20T06:23:49;15.13;;;5.87;;
69188;SDS011;56302;52.322;5.926;2022-11-20T06:26:17;10.75;;;5.15;;
69188;SDS011;56302;52.322;5.926;2022-11-20T06:28:48;15.68;;;5.70;;
69188;SDS011;56302;52.322;5.926;2022-11-20T06:31:15;13.00;;;5.30;;
69188;SDS011;56302;52.322;5.926;2022-11-20T06:33:42;10.77;;;5.18;;
69188;SDS011;56302;52.322;5.926;2022-11-20T06:36:09;12.57;;;5.75;;
69188;SDS011;56302;52.322;5.926;2022-11-20T06:38:36;12.30;;;5.60;;
69188;SDS011;56302;52.322;5.926;2022-11-20T06:41:02;11.90;;;5.57;;
69188;SDS011;56302;52.322;5.926;2022-11-20T06:43:29;18.83;;;6.05;;
69188;SDS011;56302;52.322;5.926;2022-11-20T06:45:55;11.38;;;5.85;;
69188;SDS011;56302;52.322;5.926;2022-11-20T06:48:21;12.50;;;5.70;;
69188;SDS011;56302;52.322;5.926;2022-11-20T06:50:48;12.05;;;5.65;;
69188;SDS011;56302;52.322;5.926;2022-11-20T06:53:14;12.85;;;6.22;;
69188;SDS011;56302;52.322;5.926;2022-11-20T06:55:43;12.17;;;5.63;;
69188;SDS011;56302;52.322;5.926;2022-11-20T06:58:10;13.10;;;6.07;;
69188;SDS011;56302;52.322;5.926;2022-11-20T07:00:35;11.63;;;5.72;;
69188;SDS011;56302;52.322;5.926;2022-11-20T07:03:04;14.90;;;5.37;;
69188;SDS011;56302;52.322;5.926;2022-11-20T07:05:31;10.73;;;5.53;;
69188;SDS011;56302;52.322;5.926;2022-11-20T07:07:57;12.73;;;5.38;;
69188;SDS011;56302;52.322;5.926;2022-11-20T07:10:23;11.07;;;5.40;;
69188;SDS011;56302;52.322;5.926;2022-11-20T07:12:49;13.00;;;5.10;;
69188;SDS011;56302;52.322;5.926;2022-11-20T07:15:19;13.93;;;5.95;;
69188;SDS011;56302;52.322;5.926;2022-11-20T07:17:46;12.20;;;5.38;;
69188;SDS011;56302;52.322;5.926;2022-11-20T07:20:12;13.53;;;5.37;;
69188;SDS011;56302;52.322;5.926;2022-11-20T07:22:37;14.60;;;5.47;;
69188;SDS011;56302;52.322;5.926;2022-11-20T07:25:03;13.23;;;5.83;;
69188;SDS011;56302;52.322;5.926;2022-11-20T07:27:29;11.45;;;5.85;;
69188;SDS011;56302;52.322;5.926;2022-11-20T07:29:55;13.30;;;5.40;;
69188;SDS011;56302;52.322;5.926;2022-11-20T07:32:21;15.50;;;5.65;;
69188;SDS011;56302;52.322;5.926;2022-11-20T07:34:46;13.77;;;6.23;;
69188;SDS011;56302;52.322;5.926;2022-11-20T07:37:12;14.07;;;6.10;;
69188;SDS011;56302;52.322;5.926;2022-11-20T07:39:38;13.33;;;6.17;;
69188;SDS011;56302;52.322;5.926;2022-11-20T07:42:03;11.20;;;5.75;;
69188;SDS011;56302;52.322;5.926;2022-11-20T07:44:30;14.25;;;5.80;;
69188;SDS011;56302;52.322;5.926;2022-11-20T07:46:56;16.37;;;6.63;;
69188;SDS011;56302;52.322;5.926;2022-11-20T07:49:21;10.70;;;5.40;;
69188;SDS011;56302;52.322;5.926;2022-11-20T07:51:47;12.50;;;6.00;;
69188;SDS011;56302;52.322;5.926;2022-11-20T07:54:15;14.63;;;6.57;;
69188;SDS011;56302;52.322;5.926;2022-11-20T07:56:41;18.17;;;7.03;;
69188;SDS011;56302;52.322;5.926;2022-11-20T07:59:07;14.98;;;6.40;;
69188;SDS011;56302;52.322;5.926;2022-11-20T08:01:32;13.37;;;6.40;;
69188;SDS011;56302;52.322;5.926;2022-11-20T08:03:58;13.23;;;6.37;;
69188;SDS011;56302;52.322;5.926;2022-11-20T08:06:23;17.63;;;6.90;;
69188;SDS011;56302;52.322;5.926;2022-11-20T08:08:49;14.75;;;6.85;;
69188;SDS011;56302;52.322;5.926;2022-11-20T08:11:15;15.85;;;7.05;;
69188;SDS011;56302;52.322;5.926;2022-11-20T08:13:59;13.68;;;6.18;;
69188;SDS011;56302;52.322;5.926;2022-11-20T08:16:37;16.23;;;6.03;;
69188;SDS011;56302;52.322;5.926;2022-11-20T08:19:04;15.23;;;6.28;;
69188;SDS011;56302;52.322;5.926;2022-11-20T08:21:30;16.70;;;7.05;;
69188;SDS011;56302;52.322;5.926;2022-11-20T08:23:56;12.23;;;5.90;;
69188;SDS011;56302;52.322;5.926;2022-11-20T08:26:22;13.73;;;6.50;;
69188;SDS011;56302;52.322;5.926;2022-11-20T08:28:48;14.35;;;7.82;;
69188;SDS011;56302;52.322;5.926;2022-11-20T08:31:14;15.10;;;7.00;;
69188;SDS011;56302;52.322;5.926;2022-11-20T08:33:39;18.48;;;8.05;;
69188;SDS011;56302;52.322;5.926;2022-11-20T08:36:05;18.50;;;7.90;;
69188;SDS011;56302;52.322;5.926;2022-11-20T08:38:31;17.35;;;7.13;;
69188;SDS011;56302;52.322;5.926;2022-11-20T08:40:58;19.87;;;7.87;;
69188;SDS011;56302;52.322;5.926;2022-11-20T08:43:43;18.50;;;7.85;;
69188;SDS011;56302;52.322;5.926;2022-11-20T08:46:08;20.58;;;8.40;;
69188;SDS011;56302;52.322;5.926;2022-11-20T08:48:34;20.23;;;9.30;;
69188;SDS011;56302;52.322;5.926;2022-11-20T08:50:59;18.23;;;8.30;;
69188;SDS011;56302;52.322;5.926;2022-11-20T08:53:25;16.93;;;8.77;;
69188;SDS011;56302;52.322;5.926;2022-11-20T08:55:51;20.40;;;8.68;;
69188;SDS011;56302;52.322;5.926;2022-11-20T08:58:17;18.20;;;9.32;;
69188;SDS011;56302;52.322;5.926;2022-11-20T09:00:42;19.38;;;9.02;;
69188;SDS011;56302;52.322;5.926;2022-11-20T09:03:08;19.37;;;9.30;;
69188;SDS011;56302;52.322;5.926;2022-11-20T09:05:33;17.63;;;8.95;;
69188;SDS011;56302;52.322;5.926;2022-11-20T09:07:59;19.88;;;9.40;;
69188;SDS011;56302;52.322;5.926;2022-11-20T09:10:25;20.13;;;9.73;;
69188;SDS011;56302;52.322;5.926;2022-11-20T09:12:51;20.40;;;10.15;;
69188;SDS011;56302;52.322;5.926;2022-11-20T09:15:18;21.08;;;9.32;;
69188;SDS011;56302;52.322;5.926;2022-11-20T09:17:50;19.20;;;9.57;;
69188;SDS011;56302;52.322;5.926;2022-11-20T09:20:27;21.90;;;9.43;;
69188;SDS011;56302;52.322;5.926;2022-11-20T09:22:54;19.05;;;9.65;;
69188;SDS011;56302;52.322;5.926;2022-11-20T09:25:20;20.60;;;10.02;;
69188;SDS011;56302;52.322;5.926;2022-11-20T09:27:46;22.02;;;9.52;;
69188;SDS011;56302;52.322;5.926;2022-11-20T09:30:13;22.17;;;10.63;;
69188;SDS011;56302;52.322;5.926;2022-11-20T09:32:39;24.50;;;10.23;;
69188;SDS011;56302;52.322;5.926;2022-11-20T09:35:05;21.77;;;9.98;;
69188;SDS011;56302;52.322;5.926;2022-11-20T09:37:31;19.40;;;9.07;;
69188;SDS011;56302;52.322;5.926;2022-11-20T09:39:57;21.35;;;10.30;;
69188;SDS011;56302;52.322;5.926;2022-11-20T09:42:37;22.13;;;10.33;;
69188;SDS011;56302;52.322;5.926;2022-11-20T09:45:20;22.80;;;10.43;;
69188;SDS011;56302;52.322;5.926;2022-11-20T09:55:41;20.00;;;9.95;;
69188;SDS011;56302;52.322;5.926;2022-11-20T09:58:07;25.52;;;11.40;;
69188;SDS011;56302;52.322;5.926;2022-11-20T10:00:50;22.05;;;10.80;;
69188;SDS011;56302;52.322;5.926;2022-11-20T10:03:19;21.20;;;9.70;;
69188;SDS011;56302;52.322;5.926;2022-11-20T10:06:07;21.80;;;10.45;;
69188;SDS011;56302;52.322;5.926;2022-11-20T10:19:30;22.40;;;11.13;;
69188;SDS011;56302;52.322;5.926;2022-11-20T10:25:19;27.20;;;11.95;;
69188;SDS011;56302;52.322;5.926;2022-11-20T10:30:49;26.67;;;12.82;;
69188;SDS011;56302;52.322;5.926;2022-11-20T10:33:25;24.20;;;12.25;;
69188;SDS011;56302;52.322;5.926;2022-11-20T10:36:09;25.93;;;12.90;;
69188;SDS011;56302;52.322;5.926;2022-11-20T10:38:39;24.45;;;12.50;;
69188;SDS011;56302;52.322;5.926;2022-11-20T10:41:22;25.08;;;12.40;;
69188;SDS011;56302;52.322;5.926;2022-11-20T10:46:32;25.50;;;13.32;;
69188;SDS011;56302;52.322;5.926;2022-11-20T10:49:02;27.93;;;12.77;;
69188;SDS011;56302;52.322;5.926;2022-11-20T10:56:45;25.67;;;13.38;;
69188;SDS011;56302;52.322;5.926;2022-11-20T11:01:56;25.27;;;13.03;;
69188;SDS011;56302;52.322;5.926;2022-11-20T11:06:53;25.40;;;12.93;;
69188;SDS011;56302;52.322;5.926;2022-11-20T11:09:32;22.13;;;11.33;;
69188;SDS011;56302;52.322;5.926;2022-11-20T11:12:00;24.15;;;12.32;;
69188;SDS011;56302;52.322;5.926;2022-11-20T11:14:26;26.40;;;13.00;;
69188;SDS011;56302;52.322;5.926;2022-11-20T11:16:55;24.92;;;12.93;;
69188;SDS011;56302;52.322;5.926;2022-11-20T11:19:22;23.27;;;11.70;;
69188;SDS011;56302;52.322;5.926;2022-11-20T11:21:49;26.77;;;13.90;;
69188;SDS011;56302;52.322;5.926;2022-11-20T11:24:26;24.02;;;12.48;;
69188;SDS011;56302;52.322;5.926;2022-11-20T11:27:00;25.20;;;13.25;;
69188;SDS011;56302;52.322;5.926;2022-11-20T11:29:32;26.55;;;13.70;;
69188;SDS011;56302;52.322;5.926;2022-11-20T11:34:29;26.87;;;14.27;;
69188;SDS011;56302;52.322;5.926;2022-11-20T11:36:57;24.77;;;13.13;;
69188;SDS011;56302;52.322;5.926;2022-11-20T11:39:24;26.42;;;13.60;;
69188;SDS011;56302;52.322;5.926;2022-11-20T11:41:51;27.58;;;13.32;;
69188;SDS011;56302;52.322;5.926;2022-11-20T11:47:26;25.23;;;13.33;;
69188;SDS011;56302;52.322;5.926;2022-11-20T11:58:38;24.85;;;13.73;;
69188;SDS011;56302;52.322;5.926;2022-11-20T12:04:00;26.02;;;13.15;;
69188;SDS011;56302;52.322;5.926;2022-11-20T12:06:30;26.55;;;13.30;;
69188;SDS011;56302;52.322;5.926;2022-11-20T12:08:59;27.17;;;13.73;;
69188;SDS011;56302;52.322;5.926;2022-11-20T12:11:39;26.45;;;13.52;;
69188;SDS011;56302;52.322;5.926;2022-11-20T12:14:20;24.93;;;12.40;;
69188;SDS011;56302;52.322;5.926;2022-11-20T12:16:52;26.95;;;13.43;;
69188;SDS011;56302;52.322;5.926;2022-11-20T12:19:19;28.10;;;13.55;;
69188;SDS011;56302;52.322;5.926;2022-11-20T12:27:01;25.58;;;12.88;;
69188;SDS011;56302;52.322;5.926;2022-11-20T12:32:25;25.83;;;13.25;;
69188;SDS011;56302;52.322;5.926;2022-11-20T12:37:53;24.80;;;12.35;;
69188;SDS011;56302;52.322;5.926;2022-11-20T12:41:12;28.20;;;13.68;;
69188;SDS011;56302;52.322;5.926;2022-11-20T12:46:36;22.33;;;11.68;;
69188;SDS011;56302;52.322;5.926;2022-11-20T12:52:05;27.00;;;12.95;;
69188;SDS011;56302;52.322;5.926;2022-11-20T12:54:56;25.13;;;12.93;;
69188;SDS011;56302;52.322;5.926;2022-11-20T12:57:40;24.33;;;13.15;;
69188;SDS011;56302;52.322;5.926;2022-11-20T13:00:31;24.40;;;13.50;;
69188;SDS011;56302;52.322;5.926;2022-11-20T13:08:36;24.73;;;12.90;;
69188;SDS011;56302;52.322;5.926;2022-11-20T13:13:43;23.80;;;12.70;;
69188;SDS011;56302;52.322;5.926;2022-11-20T13:16:29;18.77;;;10.23;;
69188;SDS011;56302;52.322;5.926;2022-11-20T13:19:03;20.85;;;10.95;;
69188;SDS011;56302;52.322;5.926;2022-11-20T13:21:40;20.33;;;11.82;;
69188;SDS011;56302;52.322;5.926;2022-11-20T13:26:44;20.38;;;11.05;;
69188;SDS011;56302;52.322;5.926;2022-11-20T13:29:11;18.80;;;10.30;;
69188;SDS011;56302;52.322;5.926;2022-11-20T13:31:43;17.48;;;9.88;;
69188;SDS011;56302;52.322;5.926;2022-11-20T13:34:12;18.33;;;10.43;;
69188;SDS011;56302;52.322;5.926;2022-11-20T13:36:48;17.83;;;10.63;;
69188;SDS011;56302;52.322;5.926;2022-11-20T13:39:23;20.88;;;10.85;;
69188;SDS011;56302;52.322;5.926;2022-11-20T13:41:54;19.70;;;10.70;;
69188;SDS011;56302;52.322;5.926;2022-11-20T13:47:03;19.92;;;10.85;;
69188;SDS011;56302;52.322;5.926;2022-11-20T13:49:33;22.50;;;11.52;;
69188;SDS011;56302;52.322;5.926;2022-11-20T13:58:18;18.40;;;10.68;;
69188;SDS011;56302;52.322;5.926;2022-11-20T14:03:35;18.02;;;10.63;;
69188;SDS011;56302;52.322;5.926;2022-11-20T14:06:03;21.00;;;10.33;;
69188;SDS011;56302;52.322;5.926;2022-11-20T14:08:33;18.58;;;10.05;;
69188;SDS011;56302;52.322;5.926;2022-11-20T14:11:04;19.50;;;11.38;;
69188;SDS011;56302;52.322;5.926;2022-11-20T14:13:30;21.17;;;10.77;;
69188;SDS011;56302;52.322;5.926;2022-11-20T14:15:56;18.17;;;10.17;;
69188;SDS011;56302;52.322;5.926;2022-11-20T14:18:25;19.98;;;10.63;;
69188;SDS011;56302;52.322;5.926;2022-11-20T14:20:51;18.70;;;10.88;;
69188;SDS011;56302;52.322;5.926;2022-11-20T14:23:23;18.43;;;11.17;;
69188;SDS011;56302;52.322;5.926;2022-11-20T14:25:50;17.98;;;10.00;;
69188;SDS011;56302;52.322;5.926;2022-11-20T14:28:34;18.17;;;10.50;;
69188;SDS011;56302;52.322;5.926;2022-11-20T14:30:59;23.63;;;10.40;;
69188;SDS011;56302;52.322;5.926;2022-11-20T14:33:25;20.40;;;10.95;;
69188;SDS011;56302;52.322;5.926;2022-11-20T14:35:55;19.65;;;10.13;;
69188;SDS011;56302;52.322;5.926;2022-11-20T14:38:24;20.45;;;11.02;;
69188;SDS011;56302;52.322;5.926;2022-11-20T14:40:51;18.35;;;9.93;;
69188;SDS011;56302;52.322;5.926;2022-11-20T14:43:26;16.77;;;10.37;;
69188;SDS011;56302;52.322;5.926;2022-11-20T14:45:58;17.90;;;10.80;;
69188;SDS011;56302;52.322;5.926;2022-11-20T14:48:32;20.70;;;11.15;;
69188;SDS011;56302;52.322;5.926;2022-11-20T14:51:04;19.73;;;10.65;;
69188;SDS011;56302;52.322;5.926;2022-11-20T14:53:29;18.70;;;10.07;;
69188;SDS011;56302;52.322;5.926;2022-11-20T14:55:56;19.37;;;10.03;;
69188;SDS011;56302;52.322;5.926;2022-11-20T14:58:24;18.48;;;11.55;;
69188;SDS011;56302;52.322;5.926;2022-11-20T15:00:58;20.90;;;11.27;;
69188;SDS011;56302;52.322;5.926;2022-11-20T15:03:39;21.33;;;10.98;;
69188;SDS011;56302;52.322;5.926;2022-11-20T15:06:06;21.43;;;10.77;;
69188;SDS011;56302;52.322;5.926;2022-11-20T15:08:35;20.65;;;11.05;;
69188;SDS011;56302;52.322;5.926;2022-11-20T15:11:01;22.77;;;11.85;;
69188;SDS011;56302;52.322;5.926;2022-11-20T15:13:37;22.33;;;11.77;;
69188;SDS011;56302;52.322;5.926;2022-11-20T15:16:07;21.08;;;11.68;;
69188;SDS011;56302;52.322;5.926;2022-11-20T15:18:40;22.53;;;12.13;;
69188;SDS011;56302;52.322;5.926;2022-11-20T15:21:13;23.55;;;13.07;;
69188;SDS011;56302;52.322;5.926;2022-11-20T15:23:40;24.20;;;12.82;;
69188;SDS011;56302;52.322;5.926;2022-11-20T15:26:11;23.10;;;12.77;;
69188;SDS011;56302;52.322;5.926;2022-11-20T15:28:44;26.27;;;13.77;;
69188;SDS011;56302;52.322;5.926;2022-11-20T15:31:15;25.40;;;13.75;;
69188;SDS011;56302;52.322;5.926;2022-11-20T15:33:42;24.63;;;13.23;;
69188;SDS011;56302;52.322;5.926;2022-11-20T15:36:08;23.67;;;13.57;;
69188;SDS011;56302;52.322;5.926;2022-11-20T15:38:34;26.50;;;13.40;;
69188;SDS011;56302;52.322;5.926;2022-11-20T15:41:00;27.85;;;14.18;;
69188;SDS011;56302;52.322;5.926;2022-11-20T15:43:25;23.73;;;13.20;;
69188;SDS011;56302;52.322;5.926;2022-11-20T15:45:52;25.80;;;14.13;;
69188;SDS011;56302;52.322;5.926;2022-11-20T15:48:23;25.73;;;13.48;;
69188;SDS011;56302;52.322;5.926;2022-11-20T15:50:59;28.20;;;15.23;;
69188;SDS011;56302;52.322;5.926;2022-11-20T15:53:46;28.90;;;14.90;;
69188;SDS011;56302;52.322;5.926;2022-11-20T15:56:12;26.83;;;14.53;;
69188;SDS011;56302;52.322;5.926;2022-11-20T15:58:39;28.27;;;15.77;;
69188;SDS011;56302;52.322;5.926;2022-11-20T16:01:05;28.73;;;15.30;;
69188;SDS011;56302;52.322;5.926;2022-11-20T16:03:38;32.30;;;15.65;;
69188;SDS011;56302;52.322;5.926;2022-11-20T16:06:04;29.90;;;15.03;;
69188;SDS011;56302;52.322;5.926;2022-11-20T16:08:30;27.27;;;14.25;;
69188;SDS011;56302;52.322;5.926;2022-11-20T16:10:55;30.63;;;15.10;;
69188;SDS011;56302;52.322;5.926;2022-11-20T16:13:21;31.23;;;15.57;;
69188;SDS011;56302;52.322;5.926;2022-11-20T16:16:06;25.58;;;14.18;;